sensor_id;sensor_type;location;lat;lon;timestamp;P1;durP1;ratioP1;P2;durP2;ratioP2
11823;SDS011;5969;50.780;7.726;2022-08-02T00:00:14;3.55;;;3.25;;
11823;SDS011;5969;50.780;7.726;2022-08-02T00:02:41;3.50;;;3.20;;
11823;SDS011;5969;50.780;7.726;2022-08-02T00:05:10;3.58;;;3.38;;
11823;SDS011;5969;50.780;7.726;2022-08-02T00:07:39;3.53;;;3.33;;
11823;SDS011;5969;50.780;7.726;2022-08-02T00:10:07;3.65;;;3.35;;
11823;SDS011;5969;50.780;7.726;2022-08-02T00:12:34;3.50;;;3.28;;
11823;SDS011;5969;50.780;7.726;2022-08-02T00:15:01;3.80;;;3.50;;
11823;SDS011;5969;50.780;7.726;2022-08-02T00:17:28;4.22;;;3.78;;
11823;SDS011;5969;50.780;7.726;2022-08-02T00:19:55;3.97;;;3.67;;
11823;SDS011;5969;50.780;7.726;2022-08-02T00:22:22;4.05;;;3.72;;
11823;SDS011;5969;50.780;7.726;2022-08-02T00:24:50;3.78;;;3.47;;
11823;SDS011;5969;50.780;7.726;2022-08-02T00:27:17;3.45;;;3.15;;
11823;SDS011;5969;50.780;7.726;2022-08-02T00:29:43;3.47;;;3.17;;
11823;SDS011;5969;50.780;7.726;2022-08-02T00:32:10;3.63;;;3.33;;
11823;SDS011;5969;50.780;7.726;2022-08-02T00:34:37;3.78;;;3.47;;
11823;SDS011;5969;50.780;7.726;2022-08-02T00:37:03;3.92;;;3.63;;
11823;SDS011;5969;50.780;7.726;2022-08-02T00:39:30;3.75;;;3.45;;
11823;SDS011;5969;50.780;7.726;2022-08-02T00:41:58;4.07;;;3.70;;
11823;SDS011;5969;50.780;7.726;2022-08-02T00:44:25;4.13;;;3.75;;
11823;SDS011;5969;50.780;7.726;2022-08-02T00:46:52;3.65;;;3.35;;
11823;SDS011;5969;50.780;7.726;2022-08-02T00:49:18;4.65;;;3.45;;
11823;SDS011;5969;50.780;7.726;2022-08-02T00:51:45;3.60;;;3.40;;
11823;SDS011;5969;50.780;7.726;2022-08-02T00:54:12;3.88;;;3.60;;
11823;SDS011;5969;50.780;7.726;2022-08-02T00:56:39;3.67;;;3.38;;
11823;SDS011;5969;50.780;7.726;2022-08-02T00:59:07;3.38;;;3.17;;
11823;SDS011;5969;50.780;7.726;2022-08-02T01:01:34;5.00;;;3.60;;
11823;SDS011;5969;50.780;7.726;2022-08-02T01:04:04;3.90;;;3.50;;
11823;SDS011;5969;50.780;7.726;2022-08-02T01:06:31;4.05;;;3.75;;
11823;SDS011;5969;50.780;7.726;2022-08-02T01:08:58;4.50;;;3.30;;
11823;SDS011;5969;50.780;7.726;2022-08-02T01:11:24;4.13;;;3.83;;
11823;SDS011;5969;50.780;7.726;2022-08-02T01:13:51;3.70;;;3.50;;
11823;SDS011;5969;50.780;7.726;2022-08-02T01:16:22;4.18;;;3.85;;
11823;SDS011;5969;50.780;7.726;2022-08-02T01:18:53;4.20;;;3.90;;
11823;SDS011;5969;50.780;7.726;2022-08-02T01:21:37;4.15;;;3.85;;
11823;SDS011;5969;50.780;7.726;2022-08-02T01:24:20;4.82;;;4.18;;
11823;SDS011;5969;50.780;7.726;2022-08-02T01:26:57;3.40;;;3.20;;
11823;SDS011;5969;50.780;7.726;2022-08-02T01:29:34;4.22;;;3.83;;
11823;SDS011;5969;50.780;7.726;2022-08-02T01:32:05;4.10;;;3.70;;
11823;SDS011;5969;50.780;7.726;2022-08-02T01:34:36;3.90;;;3.60;;
11823;SDS011;5969;50.780;7.726;2022-08-02T01:37:08;3.83;;;3.45;;
11823;SDS011;5969;50.780;7.726;2022-08-02T01:39:39;3.30;;;3.10;;
11823;SDS011;5969;50.780;7.726;2022-08-02T01:42:08;3.70;;;3.47;;
11823;SDS011;5969;50.780;7.726;2022-08-02T01:44:39;3.65;;;3.45;;
11823;SDS011;5969;50.780;7.726;2022-08-02T01:47:08;3.78;;;3.47;;
11823;SDS011;5969;50.780;7.726;2022-08-02T01:49:38;4.03;;;3.72;;
11823;SDS011;5969;50.780;7.726;2022-08-02T01:52:07;5.65;;;3.90;;
11823;SDS011;5969;50.780;7.726;2022-08-02T01:54:47;4.32;;;3.83;;
11823;SDS011;5969;50.780;7.726;2022-08-02T01:57:17;4.32;;;4.03;;
11823;SDS011;5969;50.780;7.726;2022-08-02T01:59:49;4.15;;;3.80;;
11823;SDS011;5969;50.780;7.726;2022-08-02T02:02:18;3.83;;;3.50;;
11823;SDS011;5969;50.780;7.726;2022-08-02T02:04:46;4.00;;;3.70;;
11823;SDS011;5969;50.780;7.726;2022-08-02T02:07:15;5.25;;;3.28;;
11823;SDS011;5969;50.780;7.726;2022-08-02T02:09:43;3.55;;;3.35;;
11823;SDS011;5969;50.780;7.726;2022-08-02T02:12:11;4.00;;;3.63;;
11823;SDS011;5969;50.780;7.726;2022-08-02T02:14:40;4.20;;;3.88;;
11823;SDS011;5969;50.780;7.726;2022-08-02T02:17:10;4.93;;;3.63;;
11823;SDS011;5969;50.780;7.726;2022-08-02T02:19:38;4.18;;;3.78;;
11823;SDS011;5969;50.780;7.726;2022-08-02T02:22:05;4.03;;;3.70;;
11823;SDS011;5969;50.780;7.726;2022-08-02T02:24:32;3.90;;;3.60;;
11823;SDS011;5969;50.780;7.726;2022-08-02T02:27:00;4.20;;;3.80;;
11823;SDS011;5969;50.780;7.726;2022-08-02T02:29:30;3.95;;;3.63;;
11823;SDS011;5969;50.780;7.726;2022-08-02T02:32:00;4.10;;;3.70;;
11823;SDS011;5969;50.780;7.726;2022-08-02T02:34:32;3.72;;;3.50;;
11823;SDS011;5969;50.780;7.726;2022-08-02T02:37:03;3.78;;;3.47;;
11823;SDS011;5969;50.780;7.726;2022-08-02T02:39:33;3.72;;;3.42;;
11823;SDS011;5969;50.780;7.726;2022-08-02T02:42:02;3.78;;;3.50;;
11823;SDS011;5969;50.780;7.726;2022-08-02T02:44:34;4.22;;;3.92;;
11823;SDS011;5969;50.780;7.726;2022-08-02T02:47:03;3.72;;;3.42;;
11823;SDS011;5969;50.780;7.726;2022-08-02T02:49:33;4.45;;;4.15;;
11823;SDS011;5969;50.780;7.726;2022-08-02T02:52:01;3.55;;;3.25;;
11823;SDS011;5969;50.780;7.726;2022-08-02T02:54:29;4.13;;;3.58;;
11823;SDS011;5969;50.780;7.726;2022-08-02T02:56:57;3.47;;;3.28;;
11823;SDS011;5969;50.780;7.726;2022-08-02T02:59:24;4.18;;;3.83;;
11823;SDS011;5969;50.780;7.726;2022-08-02T03:01:52;3.90;;;3.60;;
11823;SDS011;5969;50.780;7.726;2022-08-02T03:04:19;3.47;;;3.28;;
11823;SDS011;5969;50.780;7.726;2022-08-02T03:06:48;4.00;;;3.70;;
11823;SDS011;5969;50.780;7.726;2022-08-02T03:09:15;4.60;;;3.70;;
11823;SDS011;5969;50.780;7.726;2022-08-02T03:11:42;4.28;;;3.97;;
11823;SDS011;5969;50.780;7.726;2022-08-02T03:14:09;4.07;;;3.58;;
11823;SDS011;5969;50.780;7.726;2022-08-02T03:16:41;4.05;;;3.75;;
11823;SDS011;5969;50.780;7.726;2022-08-02T03:19:08;4.03;;;3.70;;
11823;SDS011;5969;50.780;7.726;2022-08-02T03:21:35;3.75;;;3.45;;
11823;SDS011;5969;50.780;7.726;2022-08-02T03:24:04;3.97;;;3.67;;
11823;SDS011;5969;50.780;7.726;2022-08-02T03:26:32;3.92;;;3.63;;
11823;SDS011;5969;50.780;7.726;2022-08-02T03:28:58;4.20;;;3.90;;
11823;SDS011;5969;50.780;7.726;2022-08-02T03:31:25;3.47;;;3.28;;
11823;SDS011;5969;50.780;7.726;2022-08-02T03:33:52;4.13;;;3.83;;
11823;SDS011;5969;50.780;7.726;2022-08-02T03:36:20;3.75;;;3.45;;
11823;SDS011;5969;50.780;7.726;2022-08-02T03:38:49;4.30;;;4.00;;
11823;SDS011;5969;50.780;7.726;2022-08-02T03:41:18;4.05;;;3.65;;
11823;SDS011;5969;50.780;7.726;2022-08-02T03:43:47;4.50;;;4.10;;
11823;SDS011;5969;50.780;7.726;2022-08-02T03:46:16;4.22;;;3.83;;
11823;SDS011;5969;50.780;7.726;2022-08-02T03:48:44;4.07;;;3.78;;
11823;SDS011;5969;50.780;7.726;2022-08-02T03:51:11;4.55;;;4.15;;
11823;SDS011;5969;50.780;7.726;2022-08-02T03:53:39;4.20;;;3.80;;
11823;SDS011;5969;50.780;7.726;2022-08-02T03:56:06;4.43;;;4.03;;
11823;SDS011;5969;50.780;7.726;2022-08-02T03:58:35;4.00;;;3.70;;
11823;SDS011;5969;50.780;7.726;2022-08-02T04:01:02;4.03;;;3.67;;
11823;SDS011;5969;50.780;7.726;2022-08-02T04:03:29;4.38;;;3.97;;
11823;SDS011;5969;50.780;7.726;2022-08-02T04:05:56;4.10;;;3.80;;
11823;SDS011;5969;50.780;7.726;2022-08-02T04:08:23;3.63;;;3.33;;
11823;SDS011;5969;50.780;7.726;2022-08-02T04:10:49;4.07;;;3.78;;
11823;SDS011;5969;50.780;7.726;2022-08-02T04:13:36;3.75;;;3.45;;
11823;SDS011;5969;50.780;7.726;2022-08-02T04:16:05;3.40;;;3.20;;
11823;SDS011;5969;50.780;7.726;2022-08-02T04:18:38;4.68;;;3.45;;
11823;SDS011;5969;50.780;7.726;2022-08-02T04:21:08;3.97;;;3.67;;
11823;SDS011;5969;50.780;7.726;2022-08-02T04:23:39;3.60;;;3.33;;
11823;SDS011;5969;50.780;7.726;2022-08-02T04:26:08;3.88;;;3.58;;
11823;SDS011;5969;50.780;7.726;2022-08-02T04:28:38;3.88;;;3.50;;
11823;SDS011;5969;50.780;7.726;2022-08-02T04:31:06;3.90;;;3.60;;
11823;SDS011;5969;50.780;7.726;2022-08-02T04:33:35;3.88;;;3.58;;
11823;SDS011;5969;50.780;7.726;2022-08-02T04:36:03;3.80;;;3.50;;
11823;SDS011;5969;50.780;7.726;2022-08-02T04:38:31;4.03;;;3.42;;
11823;SDS011;5969;50.780;7.726;2022-08-02T04:40:58;4.20;;;3.80;;
11823;SDS011;5969;50.780;7.726;2022-08-02T04:43:24;5.28;;;3.80;;
11823;SDS011;5969;50.780;7.726;2022-08-02T04:45:53;4.15;;;3.85;;
11823;SDS011;5969;50.780;7.726;2022-08-02T04:48:21;4.10;;;3.80;;
11823;SDS011;5969;50.780;7.726;2022-08-02T04:50:49;4.38;;;4.07;;
11823;SDS011;5969;50.780;7.726;2022-08-02T04:53:15;6.00;;;4.70;;
11823;SDS011;5969;50.780;7.726;2022-08-02T04:55:42;5.30;;;4.68;;
11823;SDS011;5969;50.780;7.726;2022-08-02T04:58:10;5.10;;;4.60;;
11823;SDS011;5969;50.780;7.726;2022-08-02T05:00:36;5.63;;;4.90;;
11823;SDS011;5969;50.780;7.726;2022-08-02T05:03:05;5.65;;;5.10;;
11823;SDS011;5969;50.780;7.726;2022-08-02T05:05:32;5.38;;;4.80;;
11823;SDS011;5969;50.780;7.726;2022-08-02T05:07:58;4.75;;;4.35;;
11823;SDS011;5969;50.780;7.726;2022-08-02T05:10:25;6.75;;;5.43;;
11823;SDS011;5969;50.780;7.726;2022-08-02T05:12:52;5.50;;;5.00;;
11823;SDS011;5969;50.780;7.726;2022-08-02T05:15:19;4.90;;;4.50;;
11823;SDS011;5969;50.780;7.726;2022-08-02T05:17:47;4.90;;;4.50;;
11823;SDS011;5969;50.780;7.726;2022-08-02T05:20:15;5.53;;;4.90;;
11823;SDS011;5969;50.780;7.726;2022-08-02T05:22:43;4.72;;;4.03;;
11823;SDS011;5969;50.780;7.726;2022-08-02T05:25:10;4.90;;;4.50;;
11823;SDS011;5969;50.780;7.726;2022-08-02T05:27:37;4.72;;;4.40;;
11823;SDS011;5969;50.780;7.726;2022-08-02T05:30:04;5.03;;;4.63;;
11823;SDS011;5969;50.780;7.726;2022-08-02T05:32:32;4.82;;;4.43;;
11823;SDS011;5969;50.780;7.726;2022-08-02T05:34:59;5.55;;;4.60;;
11823;SDS011;5969;50.780;7.726;2022-08-02T05:37:28;4.53;;;4.22;;
11823;SDS011;5969;50.780;7.726;2022-08-02T05:39:55;4.53;;;4.18;;
11823;SDS011;5969;50.780;7.726;2022-08-02T05:42:22;4.70;;;4.30;;
11823;SDS011;5969;50.780;7.726;2022-08-02T05:44:49;6.63;;;4.65;;
11823;SDS011;5969;50.780;7.726;2022-08-02T05:47:16;4.65;;;4.25;;
11823;SDS011;5969;50.780;7.726;2022-08-02T05:49:42;4.68;;;4.28;;
11823;SDS011;5969;50.780;7.726;2022-08-02T05:52:10;4.60;;;4.20;;
11823;SDS011;5969;50.780;7.726;2022-08-02T05:54:46;4.10;;;3.70;;
11823;SDS011;5969;50.780;7.726;2022-08-02T05:57:20;4.28;;;3.88;;
11823;SDS011;5969;50.780;7.726;2022-08-02T05:59:57;6.75;;;4.65;;
11823;SDS011;5969;50.780;7.726;2022-08-02T06:02:34;4.80;;;4.50;;
11823;SDS011;5969;50.780;7.726;2022-08-02T06:05:10;5.13;;;4.25;;
11823;SDS011;5969;50.780;7.726;2022-08-02T06:07:39;4.18;;;3.78;;
11823;SDS011;5969;50.780;7.726;2022-08-02T06:10:09;4.03;;;3.70;;
11823;SDS011;5969;50.780;7.726;2022-08-02T06:12:40;4.32;;;4.00;;
11823;SDS011;5969;50.780;7.726;2022-08-02T06:15:11;4.43;;;4.13;;
11823;SDS011;5969;50.780;7.726;2022-08-02T06:17:40;4.85;;;4.45;;
11823;SDS011;5969;50.780;7.726;2022-08-02T06:20:07;4.50;;;4.18;;
11823;SDS011;5969;50.780;7.726;2022-08-02T06:22:38;5.78;;;4.03;;
11823;SDS011;5969;50.780;7.726;2022-08-02T06:25:06;5.50;;;4.57;;
11823;SDS011;5969;50.780;7.726;2022-08-02T06:27:36;4.38;;;4.07;;
11823;SDS011;5969;50.780;7.726;2022-08-02T06:30:04;3.97;;;3.67;;
11823;SDS011;5969;50.780;7.726;2022-08-02T06:32:32;4.88;;;4.35;;
11823;SDS011;5969;50.780;7.726;2022-08-02T06:35:00;4.18;;;3.88;;
11823;SDS011;5969;50.780;7.726;2022-08-02T06:37:30;4.75;;;4.35;;
11823;SDS011;5969;50.780;7.726;2022-08-02T06:40:11;4.10;;;3.80;;
11823;SDS011;5969;50.780;7.726;2022-08-02T06:42:47;4.40;;;4.10;;
11823;SDS011;5969;50.780;7.726;2022-08-02T06:45:17;4.70;;;4.18;;
11823;SDS011;5969;50.780;7.726;2022-08-02T06:47:45;4.75;;;4.22;;
11823;SDS011;5969;50.780;7.726;2022-08-02T06:50:11;4.50;;;4.10;;
11823;SDS011;5969;50.780;7.726;2022-08-02T06:52:38;4.32;;;3.92;;
11823;SDS011;5969;50.780;7.726;2022-08-02T06:55:06;5.00;;;4.60;;
11823;SDS011;5969;50.780;7.726;2022-08-02T06:57:33;4.45;;;4.13;;
11823;SDS011;5969;50.780;7.726;2022-08-02T07:00:03;4.43;;;4.03;;
11823;SDS011;5969;50.780;7.726;2022-08-02T07:02:33;5.38;;;3.65;;
11823;SDS011;5969;50.780;7.726;2022-08-02T07:05:00;4.32;;;4.03;;
11823;SDS011;5969;50.780;7.726;2022-08-02T07:07:27;4.40;;;4.05;;
11823;SDS011;5969;50.780;7.726;2022-08-02T07:09:54;4.78;;;4.18;;
11823;SDS011;5969;50.780;7.726;2022-08-02T07:12:21;4.20;;;3.90;;
11823;SDS011;5969;50.780;7.726;2022-08-02T07:14:48;3.90;;;3.60;;
11823;SDS011;5969;50.780;7.726;2022-08-02T07:17:16;4.35;;;3.95;;
11823;SDS011;5969;50.780;7.726;2022-08-02T07:19:43;3.78;;;3.47;;
11823;SDS011;5969;50.780;7.726;2022-08-02T07:22:10;4.43;;;3.63;;
11823;SDS011;5969;50.780;7.726;2022-08-02T07:24:39;4.68;;;4.28;;
11823;SDS011;5969;50.780;7.726;2022-08-02T07:27:06;4.32;;;3.95;;
11823;SDS011;5969;50.780;7.726;2022-08-02T07:29:32;3.97;;;3.58;;
11823;SDS011;5969;50.780;7.726;2022-08-02T07:31:59;3.88;;;3.58;;
11823;SDS011;5969;50.780;7.726;2022-08-02T07:34:27;3.85;;;3.47;;
11823;SDS011;5969;50.780;7.726;2022-08-02T07:36:54;4.72;;;3.70;;
11823;SDS011;5969;50.780;7.726;2022-08-02T07:39:22;4.10;;;3.67;;
11823;SDS011;5969;50.780;7.726;2022-08-02T07:41:49;3.80;;;3.47;;
11823;SDS011;5969;50.780;7.726;2022-08-02T07:44:16;3.85;;;3.08;;
11823;SDS011;5969;50.780;7.726;2022-08-02T07:46:44;3.33;;;3.03;;
11823;SDS011;5969;50.780;7.726;2022-08-02T07:49:11;3.30;;;3.10;;
11823;SDS011;5969;50.780;7.726;2022-08-02T07:51:43;5.45;;;3.13;;
11823;SDS011;5969;50.780;7.726;2022-08-02T07:54:10;4.40;;;3.55;;
11823;SDS011;5969;50.780;7.726;2022-08-02T07:56:37;3.45;;;2.75;;
11823;SDS011;5969;50.780;7.726;2022-08-02T07:59:04;4.10;;;3.17;;
11823;SDS011;5969;50.780;7.726;2022-08-02T08:01:30;3.13;;;2.80;;
11823;SDS011;5969;50.780;7.726;2022-08-02T08:03:58;3.70;;;3.08;;
11823;SDS011;5969;50.780;7.726;2022-08-02T08:06:25;4.82;;;2.80;;
11823;SDS011;5969;50.780;7.726;2022-08-02T08:08:53;3.92;;;2.50;;
11823;SDS011;5969;50.780;7.726;2022-08-02T08:11:20;3.28;;;2.72;;
11823;SDS011;5969;50.780;7.726;2022-08-02T08:13:47;3.88;;;2.40;;
11823;SDS011;5969;50.780;7.726;2022-08-02T08:16:14;2.58;;;2.38;;
11823;SDS011;5969;50.780;7.726;2022-08-02T08:18:41;2.40;;;2.20;;
11823;SDS011;5969;50.780;7.726;2022-08-02T08:21:08;3.00;;;2.20;;
11823;SDS011;5969;50.780;7.726;2022-08-02T08:23:35;2.70;;;2.00;;
11823;SDS011;5969;50.780;7.726;2022-08-02T08:26:03;2.30;;;2.03;;
11823;SDS011;5969;50.780;7.726;2022-08-02T08:28:32;5.15;;;2.13;;
11823;SDS011;5969;50.780;7.726;2022-08-02T08:31:00;3.88;;;2.00;;
11823;SDS011;5969;50.780;7.726;2022-08-02T08:33:28;2.28;;;2.00;;
11823;SDS011;5969;50.780;7.726;2022-08-02T08:35:55;1.98;;;1.80;;
11823;SDS011;5969;50.780;7.726;2022-08-02T08:38:22;2.10;;;1.90;;
11823;SDS011;5969;50.780;7.726;2022-08-02T08:40:51;2.17;;;1.77;;
11823;SDS011;5969;50.780;7.726;2022-08-02T08:43:27;2.55;;;1.70;;
11823;SDS011;5969;50.780;7.726;2022-08-02T08:45:57;1.73;;;1.63;;
11823;SDS011;5969;50.780;7.726;2022-08-02T08:48:24;4.18;;;1.92;;
11823;SDS011;5969;50.780;7.726;2022-08-02T08:50:54;3.97;;;1.80;;
11823;SDS011;5969;50.780;7.726;2022-08-02T08:53:23;1.73;;;1.60;;
11823;SDS011;5969;50.780;7.726;2022-08-02T08:55:51;2.15;;;1.52;;
11823;SDS011;5969;50.780;7.726;2022-08-02T08:58:32;2.45;;;1.48;;
11823;SDS011;5969;50.780;7.726;2022-08-02T09:01:02;3.95;;;1.30;;
11823;SDS011;5969;50.780;7.726;2022-08-02T09:03:30;1.85;;;1.48;;
11823;SDS011;5969;50.780;7.726;2022-08-02T09:05:57;2.05;;;1.38;;
11823;SDS011;5969;50.780;7.726;2022-08-02T09:08:25;2.72;;;1.60;;
11823;SDS011;5969;50.780;7.726;2022-08-02T09:10:52;1.90;;;1.48;;
11823;SDS011;5969;50.780;7.726;2022-08-02T09:13:20;1.73;;;1.50;;
11823;SDS011;5969;50.780;7.726;2022-08-02T09:15:53;3.45;;;1.30;;
11823;SDS011;5969;50.780;7.726;2022-08-02T09:18:28;1.77;;;1.45;;
11823;SDS011;5969;50.780;7.726;2022-08-02T09:20:56;1.75;;;1.23;;
11823;SDS011;5969;50.780;7.726;2022-08-02T09:23:25;1.83;;;1.40;;
11823;SDS011;5969;50.780;7.726;2022-08-02T09:25:59;2.03;;;1.40;;
11823;SDS011;5969;50.780;7.726;2022-08-02T09:28:27;2.33;;;1.67;;
11823;SDS011;5969;50.780;7.726;2022-08-02T09:30:57;3.63;;;1.70;;
11823;SDS011;5969;50.780;7.726;2022-08-02T09:33:29;3.00;;;1.40;;
11823;SDS011;5969;50.780;7.726;2022-08-02T09:36:06;3.70;;;1.70;;
11823;SDS011;5969;50.780;7.726;2022-08-02T09:38:36;1.67;;;1.55;;
11823;SDS011;5969;50.780;7.726;2022-08-02T09:41:03;1.85;;;1.48;;
11823;SDS011;5969;50.780;7.726;2022-08-02T09:43:35;1.85;;;1.50;;
11823;SDS011;5969;50.780;7.726;2022-08-02T09:46:11;2.58;;;1.42;;
11823;SDS011;5969;50.780;7.726;2022-08-02T09:48:49;3.22;;;1.50;;
11823;SDS011;5969;50.780;7.726;2022-08-02T09:51:19;2.15;;;1.60;;
11823;SDS011;5969;50.780;7.726;2022-08-02T09:53:49;3.58;;;1.73;;
11823;SDS011;5969;50.780;7.726;2022-08-02T09:56:17;1.77;;;1.50;;
11823;SDS011;5969;50.780;7.726;2022-08-02T09:58:45;2.00;;;1.80;;
11823;SDS011;5969;50.780;7.726;2022-08-02T10:01:13;2.83;;;1.70;;
11823;SDS011;5969;50.780;7.726;2022-08-02T10:03:54;2.30;;;1.60;;
11823;SDS011;5969;50.780;7.726;2022-08-02T10:06:23;3.30;;;1.60;;
11823;SDS011;5969;50.780;7.726;2022-08-02T10:08:50;1.60;;;1.50;;
11823;SDS011;5969;50.780;7.726;2022-08-02T10:11:18;2.20;;;1.50;;
11823;SDS011;5969;50.780;7.726;2022-08-02T10:13:46;2.03;;;1.60;;
11823;SDS011;5969;50.780;7.726;2022-08-02T10:16:16;1.77;;;1.23;;
11823;SDS011;5969;50.780;7.726;2022-08-02T10:18:47;1.40;;;1.20;;
11823;SDS011;5969;50.780;7.726;2022-08-02T10:21:14;1.50;;;1.40;;
11823;SDS011;5969;50.780;7.726;2022-08-02T10:23:45;6.68;;;1.67;;
11823;SDS011;5969;50.780;7.726;2022-08-02T10:26:16;2.10;;;1.63;;
11823;SDS011;5969;50.780;7.726;2022-08-02T10:28:44;1.83;;;1.40;;
11823;SDS011;5969;50.780;7.726;2022-08-02T10:31:13;2.20;;;1.67;;
11823;SDS011;5969;50.780;7.726;2022-08-02T10:33:54;1.90;;;1.42;;
11823;SDS011;5969;50.780;7.726;2022-08-02T10:36:23;1.48;;;1.30;;
11823;SDS011;5969;50.780;7.726;2022-08-02T10:38:52;1.83;;;1.40;;
11823;SDS011;5969;50.780;7.726;2022-08-02T10:41:41;3.80;;;1.60;;
11823;SDS011;5969;50.780;7.726;2022-08-02T10:46:50;2.15;;;1.52;;
11823;SDS011;5969;50.780;7.726;2022-08-02T10:49:18;1.80;;;1.50;;
11823;SDS011;5969;50.780;7.726;2022-08-02T10:54:39;3.10;;;1.30;;
11823;SDS011;5969;50.780;7.726;2022-08-02T10:57:16;1.60;;;1.38;;
11823;SDS011;5969;50.780;7.726;2022-08-02T10:59:45;1.92;;;1.52;;
11823;SDS011;5969;50.780;7.726;2022-08-02T11:02:13;1.77;;;1.23;;
11823;SDS011;5969;50.780;7.726;2022-08-02T11:05:00;2.00;;;1.35;;
11823;SDS011;5969;50.780;7.726;2022-08-02T11:07:30;2.10;;;1.40;;
11823;SDS011;5969;50.780;7.726;2022-08-02T11:09:58;1.88;;;1.48;;
11823;SDS011;5969;50.780;7.726;2022-08-02T11:12:57;2.00;;;1.48;;
11823;SDS011;5969;50.780;7.726;2022-08-02T11:15:24;1.67;;;1.30;;
11823;SDS011;5969;50.780;7.726;2022-08-02T11:17:53;1.67;;;1.20;;
11823;SDS011;5969;50.780;7.726;2022-08-02T11:20:21;1.75;;;1.33;;
11823;SDS011;5969;50.780;7.726;2022-08-02T11:22:50;1.95;;;1.40;;
11823;SDS011;5969;50.780;7.726;2022-08-02T11:25:33;2.58;;;1.40;;
11823;SDS011;5969;50.780;7.726;2022-08-02T11:28:07;3.63;;;1.50;;
11823;SDS011;5969;50.780;7.726;2022-08-02T11:30:37;2.60;;;1.42;;
11823;SDS011;5969;50.780;7.726;2022-08-02T11:33:05;2.50;;;1.50;;
11823;SDS011;5969;50.780;7.726;2022-08-02T11:35:33;1.75;;;1.45;;
11823;SDS011;5969;50.780;7.726;2022-08-02T11:38:14;1.42;;;1.30;;
11823;SDS011;5969;50.780;7.726;2022-08-02T11:40:42;3.40;;;1.70;;
11823;SDS011;5969;50.780;7.726;2022-08-02T11:43:16;1.73;;;1.23;;
11823;SDS011;5969;50.780;7.726;2022-08-02T11:45:44;1.50;;;1.40;;
11823;SDS011;5969;50.780;7.726;2022-08-02T11:48:12;1.35;;;1.25;;
11823;SDS011;5969;50.780;7.726;2022-08-02T11:50:39;2.42;;;1.45;;
11823;SDS011;5969;50.780;7.726;2022-08-02T11:53:13;1.50;;;1.40;;
11823;SDS011;5969;50.780;7.726;2022-08-02T11:55:40;2.70;;;1.50;;
11823;SDS011;5969;50.780;7.726;2022-08-02T11:58:08;1.63;;;1.30;;
11823;SDS011;5969;50.780;7.726;2022-08-02T12:00:35;2.15;;;1.40;;
11823;SDS011;5969;50.780;7.726;2022-08-02T12:03:03;3.33;;;1.48;;
11823;SDS011;5969;50.780;7.726;2022-08-02T12:05:33;3.25;;;1.40;;
11823;SDS011;5969;50.780;7.726;2022-08-02T12:08:04;2.00;;;1.50;;
11823;SDS011;5969;50.780;7.726;2022-08-02T12:10:32;1.73;;;1.42;;
11823;SDS011;5969;50.780;7.726;2022-08-02T12:12:59;2.70;;;1.60;;
11823;SDS011;5969;50.780;7.726;2022-08-02T12:15:33;4.03;;;1.63;;
11823;SDS011;5969;50.780;7.726;2022-08-02T12:18:02;1.50;;;1.30;;
11823;SDS011;5969;50.780;7.726;2022-08-02T12:20:48;1.30;;;1.20;;
11823;SDS011;5969;50.780;7.726;2022-08-02T12:23:15;2.03;;;1.45;;
11823;SDS011;5969;50.780;7.726;2022-08-02T12:25:42;3.90;;;1.40;;
11823;SDS011;5969;50.780;7.726;2022-08-02T12:28:13;3.58;;;1.45;;
11823;SDS011;5969;50.780;7.726;2022-08-02T12:30:51;3.45;;;1.58;;
11823;SDS011;5969;50.780;7.726;2022-08-02T12:33:20;2.05;;;1.65;;
11823;SDS011;5969;50.780;7.726;2022-08-02T12:35:49;3.50;;;1.77;;
11823;SDS011;5969;50.780;7.726;2022-08-02T12:38:16;2.65;;;1.42;;
11823;SDS011;5969;50.780;7.726;2022-08-02T12:40:43;3.80;;;1.70;;
11823;SDS011;5969;50.780;7.726;2022-08-02T12:43:15;2.90;;;1.30;;
11823;SDS011;5969;50.780;7.726;2022-08-02T12:45:44;1.73;;;1.55;;
11823;SDS011;5969;50.780;7.726;2022-08-02T12:48:12;4.55;;;1.80;;
11823;SDS011;5969;50.780;7.726;2022-08-02T12:50:40;3.15;;;1.88;;
11823;SDS011;5969;50.780;7.726;2022-08-02T12:53:09;2.63;;;1.40;;
11823;SDS011;5969;50.780;7.726;2022-08-02T12:55:45;3.33;;;1.70;;
11823;SDS011;5969;50.780;7.726;2022-08-02T12:58:13;3.72;;;1.70;;
11823;SDS011;5969;50.780;7.726;2022-08-02T13:00:41;1.83;;;1.42;;
11823;SDS011;5969;50.780;7.726;2022-08-02T13:03:08;2.83;;;1.58;;
11823;SDS011;5969;50.780;7.726;2022-08-02T13:05:34;3.45;;;1.50;;
11823;SDS011;5969;50.780;7.726;2022-08-02T13:08:02;6.07;;;1.60;;
11823;SDS011;5969;50.780;7.726;2022-08-02T13:10:31;2.67;;;1.50;;
11823;SDS011;5969;50.780;7.726;2022-08-02T13:12:59;2.85;;;1.40;;
11823;SDS011;5969;50.780;7.726;2022-08-02T13:15:26;2.17;;;1.48;;
11823;SDS011;5969;50.780;7.726;2022-08-02T13:17:53;2.67;;;1.67;;
11823;SDS011;5969;50.780;7.726;2022-08-02T13:20:20;2.13;;;1.35;;
11823;SDS011;5969;50.780;7.726;2022-08-02T13:22:46;1.73;;;1.30;;
11823;SDS011;5969;50.780;7.726;2022-08-02T13:25:13;2.80;;;1.50;;
11823;SDS011;5969;50.780;7.726;2022-08-02T13:27:41;2.30;;;1.30;;
11823;SDS011;5969;50.780;7.726;2022-08-02T13:30:08;1.30;;;1.20;;
11823;SDS011;5969;50.780;7.726;2022-08-02T13:32:35;6.22;;;1.50;;
11823;SDS011;5969;50.780;7.726;2022-08-02T13:35:01;6.38;;;1.30;;
11823;SDS011;5969;50.780;7.726;2022-08-02T13:37:28;1.58;;;1.20;;
11823;SDS011;5969;50.780;7.726;2022-08-02T13:39:55;2.25;;;1.50;;
11823;SDS011;5969;50.780;7.726;2022-08-02T13:42:22;2.00;;;1.50;;
11823;SDS011;5969;50.780;7.726;2022-08-02T13:44:50;5.60;;;1.45;;
11823;SDS011;5969;50.780;7.726;2022-08-02T13:47:17;4.25;;;1.42;;
11823;SDS011;5969;50.780;7.726;2022-08-02T13:49:44;2.67;;;1.50;;
11823;SDS011;5969;50.780;7.726;2022-08-02T13:52:11;1.50;;;1.35;;
11823;SDS011;5969;50.780;7.726;2022-08-02T13:54:38;2.45;;;1.30;;
11823;SDS011;5969;50.780;7.726;2022-08-02T13:57:04;2.30;;;1.58;;
11823;SDS011;5969;50.780;7.726;2022-08-02T13:59:31;1.45;;;1.35;;
11823;SDS011;5969;50.780;7.726;2022-08-02T14:01:59;1.38;;;1.27;;
11823;SDS011;5969;50.780;7.726;2022-08-02T14:04:26;3.00;;;1.27;;
11823;SDS011;5969;50.780;7.726;2022-08-02T14:06:55;1.63;;;1.25;;
11823;SDS011;5969;50.780;7.726;2022-08-02T14:09:22;4.80;;;1.40;;
11823;SDS011;5969;50.780;7.726;2022-08-02T14:11:48;2.30;;;1.48;;
11823;SDS011;5969;50.780;7.726;2022-08-02T14:14:15;2.50;;;1.70;;
11823;SDS011;5969;50.780;7.726;2022-08-02T14:16:42;1.52;;;1.42;;
11823;SDS011;5969;50.780;7.726;2022-08-02T14:19:11;1.45;;;1.27;;
11823;SDS011;5969;50.780;7.726;2022-08-02T14:21:38;1.92;;;1.50;;
11823;SDS011;5969;50.780;7.726;2022-08-02T14:24:06;3.72;;;1.40;;
11823;SDS011;5969;50.780;7.726;2022-08-02T14:26:33;1.45;;;1.35;;
11823;SDS011;5969;50.780;7.726;2022-08-02T14:29:00;2.63;;;1.42;;
11823;SDS011;5969;50.780;7.726;2022-08-02T14:31:27;1.50;;;1.40;;
11823;SDS011;5969;50.780;7.726;2022-08-02T14:33:54;1.77;;;1.63;;
11823;SDS011;5969;50.780;7.726;2022-08-02T14:36:22;1.60;;;1.40;;
11823;SDS011;5969;50.780;7.726;2022-08-02T14:38:48;2.47;;;1.30;;
11823;SDS011;5969;50.780;7.726;2022-08-02T14:41:15;1.73;;;1.50;;
11823;SDS011;5969;50.780;7.726;2022-08-02T14:43:42;1.60;;;1.50;;
11823;SDS011;5969;50.780;7.726;2022-08-02T14:46:26;1.45;;;1.33;;
11823;SDS011;5969;50.780;7.726;2022-08-02T14:48:53;1.65;;;1.23;;
11823;SDS011;5969;50.780;7.726;2022-08-02T14:51:21;3.33;;;1.38;;
11823;SDS011;5969;50.780;7.726;2022-08-02T14:53:48;1.85;;;1.20;;
11823;SDS011;5969;50.780;7.726;2022-08-02T14:56:15;1.92;;;1.20;;
11823;SDS011;5969;50.780;7.726;2022-08-02T14:58:41;1.58;;;1.30;;
11823;SDS011;5969;50.780;7.726;2022-08-02T15:01:08;1.95;;;1.35;;
11823;SDS011;5969;50.780;7.726;2022-08-02T15:03:35;1.73;;;1.10;;
11823;SDS011;5969;50.780;7.726;2022-08-02T15:06:02;1.67;;;1.20;;
11823;SDS011;5969;50.780;7.726;2022-08-02T15:08:30;1.45;;;1.10;;
11823;SDS011;5969;50.780;7.726;2022-08-02T15:10:56;1.30;;;1.20;;
11823;SDS011;5969;50.780;7.726;2022-08-02T15:13:23;2.92;;;1.35;;
11823;SDS011;5969;50.780;7.726;2022-08-02T15:15:50;2.40;;;1.23;;